Time;durP1;ratioP1;P1;durP2;ratioP2;P2;SDS_P1;SDS_P2;PMS_P1;PMS_P2;Temp;Humidity;BMP_temperature;BMP_pressure;BME280_temperature;BME280_humidity;BME280_pressure;Samples;Min_cycle;Max_cycle;Signal;HPM_P1;HPM_P2
2022/10/12 04:13:03;;;;;;;24.20;16.40;;;;;;;13.10;83.17;101341.63;5609316;31;136971;-57
2022/10/12 04:16:06;;;;;;;21.08;16.42;;;;;;;13.10;83.17;101341.63;5602297;31;33410;-58
2022/10/12 04:19:12;;;;;;;24.05;16.37;;;;;;;12.51;84.88;101352.19;5603576;31;33668;-58
2022/10/12 04:22:15;;;;;;;;;;;;;;;12.36;85.44;101351.13;5600035;31;33133;-57
2022/10/12 04:25:17;;;;;;;26.30;17.40;;;;;;;12.42;85.26;101347.38;5601112;31;33825;-58
2022/10/12 04:28:19;;;;;;;18.25;15.88;;;;;;;12.40;85.10;101351.38;5588547;31;32201;-58
2022/10/12 04:31:21;;;;;;;20.65;15.80;;;;;;;12.43;84.76;101358.91;5582516;31;34267;-58
2022/10/12 04:34:24;;;;;;;19.33;16.40;;;;;;;12.57;84.13;101351.91;5572332;31;33727;-55
2022/10/12 04:37:26;;;;;;;23.15;16.33;;;;;;;12.59;83.71;101348.97;5580321;32;34176;-55
2022/10/12 04:40:29;;;;;;;19.70;15.70;;;;;;;12.57;83.54;101351.91;5577900;31;34243;-55
2022/10/12 04:43:31;;;;;;;24.87;16.60;;;;;;;12.54;83.46;101347.06;5586702;31;34187;-55
2022/10/12 04:46:33;;;;;;;21.58;16.23;;;;;;;12.50;83.56;101354.06;5578153;31;33128;-55
2022/10/12 04:49:35;;;;;;;47.33;18.45;;;;;;;12.46;83.66;101361.88;5583435;32;33734;-55
2022/10/12 04:52:38;;;;;;;19.92;16.60;;;;;;;12.49;83.55;101352.47;5580291;31;33531;-55
2022/10/12 04:55:41;;;;;;;26.33;17.27;;;;;;;12.51;83.65;101353.00;5567516;32;34318;-55
2022/10/12 04:58:44;;;;;;;20.55;16.20;;;;;;;12.43;83.76;101350.84;5567493;31;33707;-55
2022/10/12 05:01:46;;;;;;;24.35;16.95;;;;;;;12.54;83.69;101357.84;5567303;32;33251;-55
2022/10/12 05:04:49;;;;;;;21.80;16.77;;;;;;;12.67;82.41;101359.97;5576607;31;34280;-55
2022/10/12 05:07:51;;;;;;;35.60;16.67;;;;;;;12.59;82.66;101357.03;5570685;32;33632;-55
2022/10/12 05:10:57;;;;;;;42.65;17.02;;;;;;;12.45;84.08;101362.97;5567321;31;34344;-56
2022/10/12 05:14:00;;;;;;;20.35;16.15;;;;;;;12.40;84.47;101370.22;5573814;31;33615;-56
2022/10/12 05:17:03;;;;;;;33.63;17.35;;;;;;;12.52;83.65;101362.69;5573034;32;34405;-56
2022/10/12 05:20:07;;;;;;;26.83;17.00;;;;;;;12.59;83.19;101367.81;5581067;31;32224;-56
2022/10/12 05:23:10;;;;;;;24.12;16.95;;;;;;;12.59;83.91;101373.19;5570442;31;33587;-56
2022/10/12 05:26:12;;;;;;;36.10;18.87;;;;;;;12.67;83.63;101367.25;5561928;32;33388;-56
2022/10/12 05:29:15;;;;;;;34.83;18.30;;;;;;;12.58;83.89;101372.37;5555810;32;33533;-56
2022/10/12 05:32:17;;;;;;;26.62;17.15;;;;;;;12.64;84.92;101373.97;5553596;32;33614;-56
2022/10/12 05:35:19;;;;;;;62.92;19.55;;;;;;;12.78;84.63;101376.13;5554300;32;34450;-56
2022/10/12 05:38:22;;;;;;;51.28;20.33;;;;;;;12.79;85.52;101373.16;5563722;32;34361;-56
2022/10/12 05:41:24;;;;;;;38.45;19.17;;;;;;;12.88;85.35;101371.56;5567561;32;34211;-56
2022/10/12 05:44:26;;;;;;;38.17;18.87;;;;;;;13.00;85.10;101375.84;5554987;32;33501;-56
2022/10/12 05:47:29;;;;;;;32.40;18.73;;;;;;;13.01;85.79;101378.25;5563888;32;33716;-56
2022/10/12 05:50:31;;;;;;;28.38;21.20;;;;;;;13.11;85.49;101377.41;5555743;32;33698;-56
2022/10/12 05:53:33;;;;;;;40.00;20.37;;;;;;;13.17;86.07;101389.78;5553044;32;31864;-56
2022/10/12 05:56:35;;;;;;;36.35;19.85;;;;;;;13.21;86.71;101387.34;5552920;32;35721;-56
2022/10/12 05:59:38;;;;;;;44.05;19.55;;;;;;;13.24;85.25;101379.56;5559979;32;33650;-56
2022/10/12 06:02:40;;;;;;;34.63;20.50;;;;;;;13.38;85.29;101394.09;5557503;32;34251;-56
2022/10/12 06:05:43;;;;;;;32.42;19.75;;;;;;;13.45;84.58;101391.09;5565732;32;34336;-56
2022/10/12 06:08:45;;;;;;;30.02;19.67;;;;;;;13.42;85.80;101397.03;5561380;32;33504;-56
2022/10/12 06:11:47;;;;;;;38.13;20.17;;;;;;;13.48;84.73;101395.94;5556199;32;33925;-56
2022/10/12 06:14:51;;;;;;;29.55;18.67;;;;;;;13.59;84.04;101396.72;5561738;32;33464;-56
2022/10/12 06:17:54;;;;;;;32.83;19.25;;;;;;;13.73;84.09;101403.13;5562864;32;33657;-56
2022/10/12 06:20:56;;;;;;;43.53;21.35;;;;;;;13.81;83.58;101407.13;5551250;32;33684;-56
2022/10/12 06:24:19;;;;;;;47.53;20.92;;;;;;;13.91;84.15;101403.56;5562035;32;33694;-56
2022/10/12 06:27:24;;;;;;;34.95;22.85;;;;;;;14.06;84.27;101401.59;5558375;32;33716;-56
2022/10/12 06:30:27;;;;;;;30.27;20.45;;;;;;;14.18;84.84;101408.56;5559617;32;34205;-56
2022/10/12 06:33:29;;;;;;;40.30;21.25;;;;;;;14.30;83.49;101406.31;5564182;32;33696;-56
2022/10/12 06:36:32;;;;;;;35.63;21.75;;;;;;;14.39;82.76;101411.94;5557756;32;33589;-56
2022/10/12 06:39:36;;;;;;;67.72;58.85;;;;;;;14.53;82.09;101413.72;5550696;32;33687;-56
2022/10/12 06:42:48;;;;;;;35.22;21.87;;;;;;;14.73;80.92;101414.66;5553174;32;33685;-56
2022/10/12 06:45:59;;;;;;;25.37;18.05;;;;;;;14.87;76.05;101415.63;5562656;32;34402;-56
2022/10/12 06:49:03;;;;;;;39.15;18.83;;;;;;;15.12;74.54;101416.47;5553784;32;33568;-56
2022/10/12 06:52:07;;;;;;;29.00;18.87;;;;;;;15.17;73.85;101411.84;5560749;32;33792;-57
2022/10/12 06:55:11;;;;;;;25.95;17.77;;;;;;;15.28;73.81;101416.03;5558595;32;33629;-56
2022/10/12 06:58:14;;;;;;;29.30;17.60;;;;;;;15.27;74.31;101419.84;5556620;32;34805;-56
2022/10/12 07:01:17;;;;;;;31.30;17.67;;;;;;;15.36;72.78;101422.69;5559589;32;33587;-56
2022/10/12 07:04:20;;;;;;;25.45;19.62;;;;;;;15.55;70.82;101421.97;5552662;32;34397;-56
2022/10/12 07:07:23;;;;;;;25.27;17.85;;;;;;;15.47;72.01;101426.13;5549543;32;34101;-57
2022/10/12 07:10:25;;;;;;;29.33;19.23;;;;;;;15.42;72.16;101429.66;5560335;32;34154;-56
2022/10/12 07:13:28;;;;;;;36.90;19.83;;;;;;;15.40;73.39;101425.66;5555155;32;33581;-56
2022/10/12 07:16:30;;;;;;;26.10;22.58;;;;;;;15.48;71.56;101420.41;5556511;32;34213;-57
2022/10/12 07:19:33;;;;;;;32.97;19.25;;;;;;;15.59;71.87;101420.28;5554798;32;33668;-56
2022/10/12 07:22:35;;;;;;;34.78;18.70;;;;;;;15.56;71.32;101423.56;5548976;32;34274;-56
2022/10/12 07:25:38;;;;;;;28.38;20.05;;;;;;;15.52;73.12;101424.13;5559533;32;33698;-56
2022/10/12 07:28:41;;;;;;;23.75;17.45;;;;;;;15.72;69.93;101422.31;5552605;32;34439;-56
2022/10/12 07:31:44;;;;;;;30.35;20.83;;;;;;;15.84;69.37;101424.63;5554370;32;33989;-56
2022/10/12 07:34:52;;;;;;;25.95;18.98;;;;;;;15.71;69.68;101428.84;5556555;32;33736;-56
2022/10/12 07:37:55;;;;;;;22.23;18.70;;;;;;;15.65;71.85;101427.25;5567880;32;33321;-56
2022/10/12 07:40:59;;;;;;;26.00;19.58;;;;;;;15.66;73.19;101424.31;5562845;32;33281;-56
2022/10/12 07:44:02;;;;;;;26.05;19.00;;;;;;;15.61;71.93;101432.44;5552112;32;34287;-56
2022/10/12 07:47:05;;;;;;;33.30;19.10;;;;;;;15.77;70.95;101427.69;5561420;32;34287;-56
2022/10/12 07:50:08;;;;;;;33.20;19.12;;;;;;;15.82;71.45;101419.50;5561143;32;34461;-56
2022/10/12 07:53:10;;;;;;;31.58;19.23;;;;;;;15.90;70.63;101418.88;5552753;32;33762;-56
2022/10/12 07:56:15;;;;;;;26.10;16.92;;;;;;;15.91;71.48;101420.47;5559244;32;33557;-56
2022/10/12 07:59:18;;;;;;;24.80;16.90;;;;;;;16.06;69.79;101429.47;5551935;32;33773;-56
2022/10/12 08:02:20;;;;;;;24.90;18.00;;;;;;;16.04;68.76;101421.66;5552871;32;34336;-56
2022/10/12 08:05:24;;;;;;;24.08;18.60;;;;;;;16.04;68.80;101424.34;5555879;32;34328;-56
2022/10/12 08:08:26;;;;;;;26.98;15.80;;;;;;;16.19;67.50;101424.16;5558042;32;34254;-56
2022/10/12 08:11:29;;;;;;;36.60;23.20;;;;;;;16.10;66.69;101423.19;5558949;32;33713;-56
2022/10/12 08:14:31;;;;;;;30.00;21.08;;;;;;;16.17;68.06;101422.84;5550997;32;33175;-56
2022/10/12 08:17:33;;;;;;;33.50;26.85;;;;;;;16.23;67.47;101423.56;5549756;32;33462;-57
2022/10/12 08:20:38;;;;;;;24.05;18.87;;;;;;;16.26;67.98;101425.66;5563708;32;34398;-56
2022/10/12 08:23:40;;;;;;;22.33;16.67;;;;;;;16.32;66.32;101427.22;5557480;32;33607;-56
2022/10/12 08:26:42;;;;;;;35.03;19.95;;;;;;;16.24;66.86;101427.88;5555803;32;34316;-56
2022/10/12 08:29:45;;;;;;;32.17;19.55;;;;;;;16.32;67.12;101422.59;5558980;32;34142;-57
2022/10/12 08:32:47;;;;;;;25.85;17.52;;;;;;;16.39;67.10;101420.34;5555036;32;34335;-56
2022/10/12 08:35:49;;;;;;;23.87;19.65;;;;;;;16.38;66.50;101424.13;5563267;32;33675;-56
2022/10/12 08:38:54;;;;;;;22.58;16.00;;;;;;;16.47;65.82;101426.19;5555048;32;33901;-56
2022/10/12 08:42:34;;;;;;;29.15;19.08;;;;;;;16.59;64.26;101419.22;5553949;32;33495;-57
2022/10/12 08:45:48;;;;;;;31.35;17.02;;;;;;;16.65;64.33;101415.34;5565523;32;34312;-57
2022/10/12 08:49:04;;;;;;;21.80;17.13;;;;;;;16.61;66.22;101408.09;5562533;32;34251;-57
2022/10/12 08:52:21;;;;;;;26.50;16.43;;;;;;;16.62;66.42;101410.53;5559693;32;34266;-56
2022/10/12 08:55:43;;;;;;;25.10;20.88;;;;;;;16.74;66.80;101411.94;5555953;32;33559;-56
2022/10/12 08:58:46;;;;;;;37.83;18.58;;;;;;;16.86;64.75;101407.72;5549866;32;34368;-56
2022/10/12 09:02:01;;;;;;;25.65;17.23;;;;;;;16.90;64.46;101424.16;5552437;32;34230;-56
2022/10/12 09:05:11;;;;;;;29.05;20.35;;;;;;;16.82;64.92;101417.53;5562601;32;34544;-56
2022/10/12 09:08:22;;;;;;;31.75;19.80;;;;;;;16.85;65.46;101421.53;5553369;32;33825;-57
2022/10/12 09:11:44;;;;;;;30.02;16.87;;;;;;;16.95;63.50;101412.44;5552106;32;34327;-56
2022/10/12 09:14:51;;;;;;;24.77;15.65;;;;;;;16.99;63.12;101422.38;5553432;32;34395;-56
2022/10/12 09:17:55;;;;;;;21.08;15.57;;;;;;;17.08;62.36;101427.91;5565391;32;33969;-56
2022/10/12 09:20:58;;;;;;;21.52;16.23;;;;;;;17.05;62.81;101425.78;5560508;31;33370;-56
2022/10/12 09:24:03;;;;;;;25.17;14.95;;;;;;;17.02;63.08;101421.78;5562168;32;33938;-56
2022/10/12 09:27:15;;;;;;;23.12;16.83;;;;;;;17.02;63.62;101423.69;5559234;32;33009;-56
2022/10/12 09:30:19;;;;;;;36.30;15.63;;;;;;;17.05;64.16;101423.91;5549723;32;34424;-57
2022/10/12 09:33:28;;;;;;;27.58;16.42;;;;;;;17.14;63.37;101421.28;5556970;32;33686;-56
2022/10/12 09:36:35;;;;;;;21.85;14.63;;;;;;;17.18;64.30;101427.72;5566856;32;33743;-56
2022/10/12 09:39:39;;;;;;;22.85;15.63;;;;;;;17.18;63.24;101422.31;5554977;31;33458;-57
2022/10/12 09:42:43;;;;;;;39.88;20.70;;;;;;;17.16;64.34;101423.72;5561238;32;33954;-56
2022/10/12 09:45:46;;;;;;;43.42;18.37;;;;;;;17.20;63.98;101422.00;5560413;32;33465;-56
2022/10/12 09:48:57;;;;;;;22.83;14.63;;;;;;;17.32;63.09;101423.13;5567348;32;34094;-56
2022/10/12 09:51:59;;;;;;;19.55;14.65;;;;;;;17.27;62.92;101420.50;5559249;32;34359;-56
2022/10/12 09:55:10;;;;;;;22.05;13.45;;;;;;;17.29;63.07;101415.59;5564051;32;33505;-56
2022/10/12 09:58:19;;;;;;;19.60;14.82;;;;;;;17.33;64.44;101413.09;5553909;32;33584;-56
2022/10/12 10:01:29;;;;;;;19.27;13.40;;;;;;;17.40;63.19;101418.12;5563738;32;34405;-56
2022/10/12 10:04:33;;;;;;;68.45;16.48;;;;;;;17.37;62.21;101414.91;5561590;32;32902;-57
2022/10/12 10:07:35;;;;;;;25.37;12.90;;;;;;;17.38;62.77;101404.84;5564042;32;33651;-56
2022/10/12 10:10:48;;;;;;;19.58;13.10;;;;;;;17.45;62.89;101413.41;5554430;32;34303;-56
2022/10/12 10:13:53;;;;;;;18.58;13.25;;;;;;;17.49;63.25;101419.03;5560882;32;33150;-57
2022/10/12 10:16:58;;;;;;;;;;;;;;;17.52;62.84;101411.09;5560341;32;34312;-56
2022/10/12 10:20:04;;;;;;;19.40;12.70;;;;;;;17.66;62.07;101419.22;5554849;32;32321;-56
2022/10/12 10:23:28;;;;;;;17.33;11.63;;;;;;;17.64;61.91;101415.19;5557966;32;33671;-56
2022/10/12 10:26:54;;;;;;;17.40;13.02;;;;;;;17.63;62.52;101417.09;5558696;32;34351;-56
2022/10/12 10:30:15;;;;;;;16.25;11.82;;;;;;;17.65;62.67;101417.63;5551476;32;34367;-56
2022/10/12 10:33:34;;;;;;;17.70;11.38;;;;;;;17.79;60.21;101412.22;5554327;32;33594;-56
2022/10/12 10:36:44;;;;;;;200.40;21.83;;;;;;;17.74;59.38;101413.06;5565714;32;33332;-56
2022/10/12 10:39:51;;;;;;;18.55;12.43;;;;;;;17.74;61.24;101418.50;5560046;32;32336;-56
2022/10/12 10:42:56;;;;;;;;;;;;;;;17.75;60.75;101416.59;5560077;32;33653;-56
2022/10/12 10:46:01;;;;;;;16.53;10.60;;;;;;;17.72;60.59;101412.59;5556887;32;33915;-57
2022/10/12 10:49:05;;;;;;;17.87;11.45;;;;;;;17.79;60.69;101413.00;5554542;32;33567;-56
2022/10/12 10:52:19;;;;;;;17.80;12.13;;;;;;;17.84;60.43;101414.81;5553749;32;33645;-56
2022/10/12 10:55:46;;;;;;;14.43;11.18;;;;;;;17.98;59.17;101407.47;5557731;32;34265;-57
2022/10/12 10:58:58;;;;;;;17.90;12.05;;;;;;;17.96;60.38;101403.44;5549649;32;33740;-56
2022/10/12 11:02:41;;;;;;;16.37;11.68;;;;;;;17.89;59.85;101403.06;5561749;32;34057;-57
2022/10/12 11:05:49;;;;;;;14.18;10.18;;;;;;;18.02;58.89;101397.59;5554015;32;33247;-56
2022/10/12 11:09:10;;;;;;;22.10;11.27;;;;;;;17.95;60.55;101401.84;5562095;32;33644;-56
2022/10/12 11:12:20;;;;;;;16.08;10.50;;;;;;;18.07;59.48;101399.37;5559655;32;34253;-56
2022/10/12 11:15:31;;;;;;;15.57;11.12;;;;;;;17.96;60.83;101392.59;5562403;32;33685;-56
2022/10/12 11:18:40;;;;;;;19.58;10.65;;;;;;;18.01;59.63;101390.56;5559135;32;33767;-56
2022/10/12 11:21:49;;;;;;;13.73;10.45;;;;;;;17.94;61.82;101389.37;5564646;32;33380;-57
2022/10/12 11:25:01;;;;;;;17.25;10.68;;;;;;;17.92;60.86;101397.03;5560124;32;34482;-56
2022/10/12 11:28:06;;;;;;;15.38;10.82;;;;;;;17.92;60.99;101394.31;5553433;32;34335;-56
2022/10/12 11:31:18;;;;;;;16.20;11.18;;;;;;;17.92;60.39;101391.59;5563834;32;33686;-57
2022/10/12 11:34:22;;;;;;;13.10;10.32;;;;;;;17.99;61.84;101392.78;5564088;32;32950;-56
2022/10/12 11:37:50;;;;;;;15.30;10.93;;;;;;;17.98;60.90;101390.34;5554221;32;33421;-56
2022/10/12 11:41:07;;;;;;;16.60;10.40;;;;;;;18.00;61.52;101396.28;5563405;32;33612;-57
2022/10/12 11:44:38;;;;;;;35.25;10.43;;;;;;;18.04;61.73;101386.41;5563166;32;34460;-56
2022/10/12 11:47:46;;;;;;;12.48;9.77;;;;;;;18.10;62.11;101393.34;5562440;31;33556;-57
2022/10/12 11:50:49;;;;;;;30.30;10.57;;;;;;;18.08;61.84;101388.25;5555342;32;32006;-56
2022/10/12 11:54:02;;;;;;;19.10;9.88;;;;;;;18.14;61.47;101380.75;5552833;32;33638;-56
2022/10/12 11:57:10;;;;;;;13.32;9.68;;;;;;;18.21;59.78;101374.91;5567109;32;33009;-57
2022/10/12 12:00:25;;;;;;;31.55;10.30;;;;;;;18.13;60.57;101373.75;5562069;32;33869;-57
2022/10/12 12:04:01;;;;;;;13.45;8.88;;;;;;;18.10;60.04;101374.34;5562887;32;33641;-57
2022/10/12 12:07:42;;;;;;;13.80;9.20;;;;;;;18.08;60.38;101368.44;5558846;32;33941;-58
2022/10/12 12:10:50;;;;;;;17.23;9.00;;;;;;;18.13;61.17;101376.44;5565483;32;33615;-57
2022/10/12 12:14:23;;;;;;;16.50;9.73;;;;;;;18.20;60.05;101370.59;5565539;32;33337;-57
2022/10/12 12:17:29;;;;;;;15.70;8.38;;;;;;;18.22;60.09;101368.41;5566761;32;34003;-57
2022/10/12 12:20:42;;;;;;;19.15;10.07;;;;;;;18.29;60.08;101364.12;5565665;32;33794;-57
2022/10/12 12:23:53;;;;;;;15.85;9.63;;;;;;;18.38;59.93;101368.84;5567071;32;34466;-57
2022/10/12 12:26:55;;;;;;;19.55;10.23;;;;;;;18.38;60.32;101361.50;5548166;32;34259;-57
2022/10/12 12:30:00;;;;;;;13.68;9.95;;;;;;;18.47;58.92;101365.03;5547661;32;33775;-57
2022/10/12 12:33:14;;;;;;;11.88;8.15;;;;;;;18.44;60.19;101362.16;5559956;32;34416;-57
2022/10/12 12:36:33;;;;;;;14.52;9.02;;;;;;;18.44;60.57;101359.44;5569832;32;33686;-57
2022/10/12 12:39:37;;;;;;;14.38;8.80;;;;;;;18.58;57.61;101362.91;5569961;32;33817;-57
2022/10/12 12:42:39;;;;;;;13.25;8.73;;;;;;;18.44;58.45;101357.53;5570239;32;34907;-57
2022/10/12 12:45:53;;;;;;;14.18;8.30;;;;;;;18.48;59.49;101355.00;5570014;32;33826;-57
2022/10/12 12:48:57;;;;;;;12.82;8.82;;;;;;;18.62;56.88;101358.44;5569865;32;34933;-57
2022/10/12 12:51:59;;;;;;;15.93;7.65;;;;;;;18.52;56.58;101351.34;5570034;32;33955;-57
2022/10/12 12:55:32;;;;;;;13.55;8.02;;;;;;;18.47;56.63;101346.03;5570155;32;34271;-57
2022/10/12 12:59:08;;;;;;;19.50;8.75;;;;;;;18.42;57.84;101350.81;5569937;32;33633;-57
2022/10/12 13:02:48;;;;;;;18.77;9.43;;;;;;;18.41;57.71;101350.03;5570153;32;34428;-57
2022/10/12 13:06:12;;;;;;;16.02;8.05;;;;;;;18.36;57.59;101350.12;5570395;32;34281;-57
2022/10/12 13:09:33;;;;;;;12.57;8.77;;;;;;;18.28;56.99;101348.16;5570329;32;33909;-58
2022/10/12 13:12:52;;;;;;;29.08;9.75;;;;;;;18.42;56.28;101350.81;5569883;32;33774;-57
2022/10/12 13:16:08;;;;;;;12.48;8.57;;;;;;;18.40;55.92;101337.53;5570138;32;33809;-57
2022/10/12 13:19:13;;;;;;;14.40;8.30;;;;;;;18.40;56.96;101342.16;5570282;32;34441;-59
2022/10/12 13:22:33;;;;;;;13.20;8.00;;;;;;;18.34;57.18;101336.06;5569409;32;34513;-58
2022/10/12 13:25:44;;;;;;;40.38;9.68;;;;;;;18.32;56.00;101335.56;5569708;32;34809;-58
2022/10/12 13:28:48;;;;;;;23.35;9.35;;;;;;;18.31;58.46;101339.41;5569969;32;33614;-58
2022/10/12 13:31:57;;;;;;;15.55;8.07;;;;;;;18.31;58.54;101342.91;5569837;32;34313;-58
2022/10/12 13:35:05;;;;;;;16.15;8.05;;;;;;;18.36;56.67;101339.28;5569607;32;33793;-58
2022/10/12 13:38:13;;;;;;;16.27;8.13;;;;;;;18.40;56.46;101342.97;5570001;32;33691;-58
2022/10/12 13:41:17;;;;;;;30.27;9.27;;;;;;;18.43;55.94;101339.63;5569549;32;33823;-58
2022/10/12 13:44:27;;;;;;;16.15;8.57;;;;;;;18.40;56.94;101334.81;5569465;32;33757;-58
2022/10/12 13:47:31;;;;;;;69.18;11.25;;;;;;;18.41;55.43;101343.75;5569416;32;33732;-58
2022/10/12 13:50:34;;;;;;;16.90;9.07;;;;;;;18.34;57.25;101327.91;5569476;32;33434;-58
2022/10/12 13:53:38;;;;;;;20.35;8.40;;;;;;;18.30;55.71;101335.88;5569711;32;34366;-58
2022/10/12 13:56:40;;;;;;;29.63;9.02;;;;;;;18.23;57.16;101327.34;5569262;32;34270;-58
2022/10/12 13:59:44;;;;;;;30.58;9.90;;;;;;;18.21;58.46;101329.59;5569548;32;34353;-58
2022/10/12 14:03:05;;;;;;;24.85;9.13;;;;;;;18.21;58.80;101326.88;5569376;32;34426;-58
2022/10/12 14:06:40;;;;;;;31.27;8.95;;;;;;;18.29;56.93;101328.06;5569101;32;33738;-58
2022/10/12 14:09:45;;;;;;;22.35;8.80;;;;;;;18.28;58.29;101329.97;5543265;31;34255;-58
2022/10/12 14:12:50;;;;;;;20.80;8.45;;;;;;;18.28;59.27;101327.25;5569446;32;34426;-58
2022/10/12 14:15:54;;;;;;;14.43;8.30;;;;;;;18.39;56.45;101324.28;5569349;32;33645;-57
2022/10/12 14:19:17;;;;;;;15.63;8.65;;;;;;;18.43;54.96;101319.84;5568981;32;34074;-57
2022/10/12 14:22:23;;;;;;;15.82;8.60;;;;;;;18.47;54.37;101318.88;5569150;32;34355;-57
2022/10/12 14:25:28;;;;;;;14.75;8.52;;;;;;;18.47;56.17;101312.66;5569051;32;33770;-57
2022/10/12 14:28:36;;;;;;;47.13;10.73;;;;;;;18.36;57.71;101312.13;5569166;32;33743;-57
2022/10/12 14:31:57;;;;;;;75.10;12.82;;;;;;;18.36;57.65;101303.97;5569515;32;33751;-57
2022/10/12 14:35:17;;;;;;;111.72;13.90;;;;;;;18.31;57.42;101307.63;5569475;32;33695;-57
2022/10/12 14:38:43;;;;;;;41.90;10.10;;;;;;;18.33;59.91;101314.66;5569312;32;33789;-57
2022/10/12 14:41:50;;;;;;;593.42;46.13;;;;;;;18.26;60.33;101309.66;5569301;32;34402;-57
2022/10/12 14:44:53;;;;;;;53.08;11.57;;;;;;;18.25;60.14;101310.78;5568787;32;33646;-57
2022/10/12 14:47:55;;;;;;;82.47;13.38;;;;;;;18.22;61.40;101314.13;5569410;32;34218;-57
2022/10/12 14:50:58;;;;;;;33.47;10.10;;;;;;;18.20;62.24;101311.69;5569330;32;33630;-57
2022/10/12 14:54:02;;;;;;;19.17;9.07;;;;;;;18.13;62.31;101311.31;5569150;32;34393;-57
2022/10/12 14:57:14;;;;;;;21.95;7.72;;;;;;;18.04;62.41;101310.44;5568544;32;34398;-57
2022/10/12 15:00:18;;;;;;;24.65;9.20;;;;;;;18.04;62.73;101311.25;5569151;32;34284;-57
2022/10/12 15:03:20;;;;;;;60.95;10.68;;;;;;;17.95;63.46;101301.47;5568813;32;34098;-57
2022/10/12 15:06:22;;;;;;;16.98;8.95;;;;;;;17.94;64.01;101303.34;5569227;32;33979;-57
2022/10/12 15:09:25;;;;;;;17.25;9.32;;;;;;;17.87;63.25;101305.69;5569122;32;34351;-57
2022/10/12 15:12:30;;;;;;;15.95;9.10;;;;;;;17.82;63.23;101305.81;5568985;32;34355;-57
2022/10/12 15:15:33;;;;;;;15.15;9.38;;;;;;;17.75;64.26;101306.22;5569393;32;34451;-57
2022/10/12 15:18:35;;;;;;;15.10;8.65;;;;;;;17.69;64.04;101302.00;5569408;32;33626;-57
2022/10/12 15:21:37;;;;;;;13.45;8.32;;;;;;;17.61;64.09;101310.84;5569019;32;34345;-57
2022/10/12 15:24:39;;;;;;;16.15;9.63;;;;;;;17.58;64.43;101306.03;5569128;32;34443;-57
2022/10/12 15:27:41;;;;;;;17.42;9.45;;;;;;;17.51;64.07;101294.81;5569295;32;33603;-57
2022/10/12 15:30:44;;;;;;;18.02;9.38;;;;;;;17.45;64.30;101296.03;5569251;32;34287;-57
2022/10/12 15:34:13;;;;;;;16.35;9.45;;;;;;;17.44;64.45;101299.84;5568989;32;33681;-57
2022/10/12 15:37:15;;;;;;;15.90;9.52;;;;;;;17.38;65.29;101302.69;5568775;32;33734;-57
2022/10/12 15:40:19;;;;;;;14.82;9.75;;;;;;;17.31;64.68;101299.56;5569040;32;33634;-57
2022/10/12 15:43:21;;;;;;;27.08;10.65;;;;;;;17.28;64.96;101315.63;5569055;32;33974;-57
